Kezdőlap
METAR-TAF:

METAR-TAF

Repülőterek :

Taunton Municipal Airport (King Field)

Taunton, Massachusetts, Amerikai Egyesült Államok

földrajzi szélesség: 41-52-32N, földrajzi hosszúság: 071-01-16W, magasság: 13 m

Jelenlegi meteorológiai megfigyelések

A jelentés 10 perccel ezelõtt készült, 07:52 UTC
Szélcsend
Hőmérséklet 14°C
Páratartalom 94%
Légköri nyomás 1023 hPa
Látótávolság: 9.7 km
Borult 300 lábon
Párásság

METAR: KTAN 260752Z AUTO 00000KT 6SM BR OVC003 14/13 A3020 RMK AO2 SLP225 T01390128

Idő: 04:02 (08:02 UTC)


TAF: hiányzik

Meteorológiai megfigyelések és előrejelzések több, mint 4000 repülőtéren (METAR és TAF jelentéseket).

A térképen piros és sárga pontok jelzik az elérhető meteorológiai állomásokat.

Mozgassa az egeret a pont fölött, hogy megjelenjen az állomás neve.

Azután kattintson az időjárási megfigyelések és előrejelzések megtekintéséhez.

A térkép megváltoztatása: kattintson a fekete keresztel jelölt zöld gombra ráközelítéshez, a vonallal jelölt zöld gombra távolításhoz, vagy a zöld nyilakra a szomszédos térképek eléréséhez.


METAR-TAF: